Time;durP1;ratioP1;P1;durP2;ratioP2;P2;SDS_P1;SDS_P2;PMS_P1;PMS_P2;Temp;Humidity;BMP_temperature;BMP_pressure;BME280_temperature;BME280_humidity;BME280_pressure;Samples;Min_cycle;Max_cycle;Signal;HPM_P1;HPM_P2
2023/07/31 00:01:16;;;;;;;;;;;;;;;;;;5024849;28;19925;-67
2023/07/31 00:03:42;;;;;;;;;;;;;;;;;;5025779;28;20346;-65
2023/07/31 00:06:08;;;;;;;;;;;;;;;;;;5025497;28;20367;-67
2023/07/31 00:08:34;;;;;;;;;;;;;;;;;;5023567;28;19936;-70
2023/07/31 00:11:00;;;;;;;;;;;;;;;;;;5024883;28;19932;-66
2023/07/31 00:13:25;;;;;;;;;;;;;;;;;;5024209;28;19925;-66
2023/07/31 00:15:51;;;;;;;;;;;;;;;;;;5025942;28;19925;-65
2023/07/31 00:18:17;;;;;;;;;;;;;;;;;;5025222;28;19925;-66
2023/07/31 00:20:43;;;;;;;;;;;;;;;;;;5025087;28;20361;-65
2023/07/31 00:23:09;;;;;;;;;;;;;;;;;;5024141;28;20578;-65
2023/07/31 00:25:35;;;;;;;;;;;;;;;;;;5022379;28;19925;-65
2023/07/31 00:28:01;;;;;;;;;;;;;;;;;;5025028;28;19926;-65
2023/07/31 00:30:27;;;;;;;;;;;;;;;;;;5024742;28;20497;-65
2023/07/31 00:32:53;;;;;;;;;;;;;;;;;;5024870;28;20024;-65
2023/07/31 00:35:19;;;;;;;;;;;;;;;;;;5025059;28;20643;-64
2023/07/31 00:37:45;;;;;;;;;;;;;;;;;;5023369;28;19933;-65
2023/07/31 00:40:11;;;;;;;;;;;;;;;;;;5024876;28;19929;-65
2023/07/31 00:42:36;;;;;;;;;;;;;;;;;;5023170;28;19925;-64
2023/07/31 00:45:02;;;;;;;;;;;;;;;;;;5024730;28;19929;-65
2023/07/31 00:47:28;;;;;;;;;;;;;;;;;;5024475;28;20683;-64
2023/07/31 00:49:54;;;;;;;;;;;;;;;;;;5023629;28;19929;-64
2023/07/31 00:52:20;;;;;;;;;;;;;;;;;;5024035;28;19931;-64
2023/07/31 00:54:46;;;;;;;;;;;;;;;;;;5024607;28;20027;-64
2023/07/31 00:57:12;;;;;;;;;;;;;;;;;;5024114;28;19925;-65
2023/07/31 00:59:38;;;;;;;;;;;;;;;;;;5024504;28;19961;-65
2023/07/31 01:02:04;;;;;;;;;;;;;;;;;;5023439;28;19929;-64
2023/07/31 01:04:30;;;;;;;;;;;;;;;;;;5024125;28;19961;-64
2023/07/31 01:06:56;;;;;;;;;;;;;;;;;;5023538;28;20271;-65
2023/07/31 01:09:21;;;;;;;;;;;;;;;;;;5024274;28;20477;-65
2023/07/31 01:11:48;;;;;;;;;;;;;;;;;;5024310;28;19932;-65
2023/07/31 01:14:14;;;;;;;;;;;;;;;;;;5023469;28;19933;-65
2023/07/31 01:16:40;;;;;;;;;;;;;;;;;;5024437;28;19932;-65
2023/07/31 01:19:06;;;;;;;;;;;;;;;;;;5023975;28;19944;-65
2023/07/31 01:21:32;;;;;;;;;;;;;;;;;;5022280;28;20421;-65
2023/07/31 01:23:58;;;;;;;;;;;;;;;;;;5023832;28;19921;-65
2023/07/31 01:26:24;;;;;;;;;;;;;;;;;;5023742;28;19925;-65
2023/07/31 01:28:49;;;;;;;;;;;;;;;;;;5024250;28;19925;-65
2023/07/31 01:31:15;;;;;;;;;;;;;;;;;;5023580;28;20294;-65
2023/07/31 01:33:41;;;;;;;;;;;;;;;;;;5023271;28;19925;-65
2023/07/31 01:36:07;;;;;;;;;;;;;;;;;;5020798;28;19965;-65
2023/07/31 01:38:33;;;;;;;;;;;;;;;;;;5023404;28;19972;-64
2023/07/31 01:40:59;;;;;;;;;;;;;;;;;;5024033;28;19972;-65
2023/07/31 01:43:25;;;;;;;;;;;;;;;;;;5022953;28;20275;-65
2023/07/31 01:45:51;;;;;;;;;;;;;;;;;;5023630;28;19960;-65
2023/07/31 01:48:17;;;;;;;;;;;;;;;;;;5023103;28;19972;-64
2023/07/31 01:50:43;;;;;;;;;;;;;;;;;;5023205;28;19936;-64
2023/07/31 01:53:09;;;;;;;;;;;;;;;;;;5023297;28;19925;-64
2023/07/31 01:55:34;;;;;;;;;;;;;;;;;;5023778;28;20371;-64
2023/07/31 01:58:00;;;;;;;;;;;;;;;;;;5023169;28;19959;-64
2023/07/31 02:00:26;;;;;;;;;;;;;;;;;;5022974;28;19929;-64
2023/07/31 02:02:52;;;;;;;;;;;;;;;;;;5023207;28;19936;-64
2023/07/31 02:05:18;;;;;;;;;;;;;;;;;;5024021;28;19925;-64
2023/07/31 02:07:44;;;;;;;;;;;;;;;;;;5022527;28;19929;-65
2023/07/31 02:10:10;;;;;;;;;;;;;;;;;;5023233;28;19925;-65
2023/07/31 02:12:36;;;;;;;;;;;;;;;;;;5021341;28;20310;-64
2023/07/31 02:15:02;;;;;;;;;;;;;;;;;;5023871;28;19976;-64
2023/07/31 02:17:29;;;;;;;;;;;;;;;;;;5023157;28;19964;-65
2023/07/31 02:19:55;;;;;;;;;;;;;;;;;;5023009;28;19926;-65
2023/07/31 02:22:21;;;;;;;;;;;;;;;;;;5023048;28;19936;-65
2023/07/31 02:24:47;;;;;;;;;;;;;;;;;;5022445;28;19933;-65
2023/07/31 02:27:13;;;;;;;;;;;;;;;;;;5022915;28;20269;-64
2023/07/31 02:29:38;;;;;;;;;;;;;;;;;;5023471;28;19932;-65
2023/07/31 02:32:04;;;;;;;;;;;;;;;;;;5022829;28;19936;-65
2023/07/31 02:34:30;;;;;;;;;;;;;;;;;;5023122;28;19932;-65
2023/07/31 02:36:56;;;;;;;;;;;;;;;;;;5021774;28;19933;-65
2023/07/31 02:39:22;;;;;;;;;;;;;;;;;;5023454;28;19932;-65
2023/07/31 02:41:48;;;;;;;;;;;;;;;;;;5023097;28;20383;-65
2023/07/31 02:44:14;;;;;;;;;;;;;;;;;;5023121;28;19932;-65
2023/07/31 02:46:40;;;;;;;;;;;;;;;;;;5023060;28;19932;-65
2023/07/31 02:49:06;;;;;;;;;;;;;;;;;;5025522;28;19931;-65
2023/07/31 02:51:32;;;;;;;;;;;;;;;;;;5025978;28;19925;-65
2023/07/31 02:53:57;;;;;;;;;;;;;;;;;;5025654;28;19925;-64
2023/07/31 02:56:23;;;;;;;;;;;;;;;;;;5026313;28;20342;-68
2023/07/31 02:58:49;;;;;;;;;;;;;;;;;;5027373;28;19932;-66
2023/07/31 03:01:15;;;;;;;;;;;;;;;;;;5026253;28;19932;-64
2023/07/31 03:03:41;;;;;;;;;;;;;;;;;;5026398;28;19926;-64
2023/07/31 03:06:07;;;;;;;;;;;;;;;;;;5025729;28;20434;-65
2023/07/31 03:08:33;;;;;;;;;;;;;;;;;;5026621;28;19983;-64
2023/07/31 03:10:59;;;;;;;;;;;;;;;;;;5026374;28;19979;-64
2023/07/31 03:13:25;;;;;;;;;;;;;;;;;;5026187;28;19975;-65
2023/07/31 03:15:51;;;;;;;;;;;;;;;;;;5026930;28;19926;-64
2023/07/31 03:18:17;;;;;;;;;;;;;;;;;;5026305;28;20488;-64
2023/07/31 03:20:43;;;;;;;;;;;;;;;;;;5024067;28;20529;-63
2023/07/31 03:23:09;;;;;;;;;;;;;;;;;;5026043;28;19925;-63
2023/07/31 03:25:35;;;;;;;;;;;;;;;;;;5025592;28;20469;-64
2023/07/31 03:28:01;;;;;;;;;;;;;;;;;;5024964;28;20019;-64
2023/07/31 03:30:27;;;;;;;;;;;;;;;;;;5026105;28;20280;-64
2023/07/31 03:32:53;;;;;;;;;;;;;;;;;;5026090;28;19929;-64
2023/07/31 03:35:19;;;;;;;;;;;;;;;;;;5025926;28;19968;-64
2023/07/31 03:37:45;;;;;;;;;;;;;;;;;;5025094;28;19940;-64
2023/07/31 03:40:11;;;;;;;;;;;;;;;;;;5024258;28;19934;-64
2023/07/31 03:42:36;;;;;;;;;;;;;;;;;;5025832;28;19925;-64
2023/07/31 03:45:02;;;;;;;;;;;;;;;;;;5025978;28;20446;-64
2023/07/31 03:47:28;;;;;;;;;;;;;;;;;;5025385;28;19932;-65
2023/07/31 03:49:54;;;;;;;;;;;;;;;;;;5025071;28;19929;-64
2023/07/31 03:52:20;;;;;;;;;;;;;;;;;;5025105;28;19932;-65
2023/07/31 03:54:46;;;;;;;;;;;;;;;;;;5025708;28;19936;-65
2023/07/31 03:57:12;;;;;;;;;;;;;;;;;;5025632;28;19928;-64
2023/07/31 03:59:41;;;;;;;;;;;;;;;;;;5024047;28;19932;-65
2023/07/31 04:02:07;;;;;;;;;;;;;;;;;;5025640;28;19932;-65
2023/07/31 04:04:33;;;;;;;;;;;;;;;;;;5020399;28;19929;-64
2023/07/31 04:06:59;;;;;;;;;;;;;;;;;;5025253;28;20022;-64
2023/07/31 04:09:25;;;;;;;;;;;;;;;;;;5024951;28;19925;-63
2023/07/31 04:11:51;;;;;;;;;;;;;;;;;;5025149;28;19932;-64
2023/07/31 04:14:17;;;;;;;;;;;;;;;;;;5025190;28;19925;-63
2023/07/31 04:16:43;;;;;;;;;;;;;;;;;;5025356;28;20409;-63
2023/07/31 04:19:10;;;;;;;;;;;;;;;;;;5025180;28;19968;-63
2023/07/31 04:21:36;;;;;;;;;;;;;;;;;;5024390;28;19932;-63
2023/07/31 04:24:02;;;;;;;;;;;;;;;;;;5023928;28;19925;-63
2023/07/31 04:26:28;;;;;;;;;;;;;;;;;;5025251;28;19932;-64
2023/07/31 04:28:54;;;;;;;;;;;;;;;;;;5024667;28;20007;-64
2023/07/31 04:31:19;;;;;;;;;;;;;;;;;;5025411;28;19925;-64
2023/07/31 04:33:45;;;;;;;;;;;;;;;;;;5025026;28;19929;-63
2023/07/31 04:36:12;;;;;;;;;;;;;;;;;;5023815;28;19929;-63
2023/07/31 04:38:38;;;;;;;;;;;;;;;;;;5024440;28;19925;-64
2023/07/31 04:41:05;;;;;;;;;;;;;;;;;;5025119;28;19952;-63
2023/07/31 04:43:31;;;;;;;;;;;;;;;;;;5024700;28;20276;-64
2023/07/31 04:45:57;;;;;;;;;;;;;;;;;;5024684;28;19931;-64
2023/07/31 04:48:23;;;;;;;;;;;;;;;;;;5023896;28;20307;-64
2023/07/31 04:50:49;;;;;;;;;;;;;;;;;;5023959;28;19925;-64
2023/07/31 04:53:15;;;;;;;;;;;;;;;;;;5024653;28;19932;-64
2023/07/31 04:55:41;;;;;;;;;;;;;;;;;;5012878;28;19933;-64
2023/07/31 04:58:07;;;;;;;;;;;;;;;;;;5022696;28;19925;-64
2023/07/31 05:00:33;;;;;;;;;;;;;;;;;;5024482;28;20061;-64
2023/07/31 05:02:59;;;;;;;;;;;;;;;;;;5024218;28;19931;-65
2023/07/31 05:05:25;;;;;;;;;;;;;;;;;;5023601;28;20084;-62
2023/07/31 05:07:51;;;;;;;;;;;;;;;;;;5024734;28;19932;-65
2023/07/31 05:10:17;;;;;;;;;;;;;;;;;;5023617;28;19933;-65
2023/07/31 05:12:43;;;;;;;;;;;;;;;;;;5024002;28;20245;-64
2023/07/31 05:15:08;;;;;;;;;;;;;;;;;;5024082;28;20589;-65
2023/07/31 05:17:34;;;;;;;;;;;;;;;;;;5024172;28;19936;-65
2023/07/31 05:20:00;;;;;;;;;;;;;;;;;;5022262;28;19931;-64
2023/07/31 05:22:26;;;;;;;;;;;;;;;;;;5022226;28;20016;-65
2023/07/31 05:24:54;;;;;;;;;;;;;;;;;;5024600;28;20569;-64
2023/07/31 05:27:19;;;;;;;;;;;;;;;;;;5024444;28;19925;-64
2023/07/31 05:29:45;;;;;;;;;;;;;;;;;;5023938;28;20016;-64
2023/07/31 05:32:11;;;;;;;;;;;;;;;;;;5023513;28;19932;-64
2023/07/31 05:34:37;;;;;;;;;;;;;;;;;;5022861;28;19944;-64
2023/07/31 05:37:03;;;;;;;;;;;;;;;;;;5023187;28;20417;-64
2023/07/31 05:39:29;;;;;;;;;;;;;;;;;;5023229;28;20311;-65
2023/07/31 05:41:55;;;;;;;;;;;;;;;;;;5023792;28;19936;-64
2023/07/31 05:44:21;;;;;;;;;;;;;;;;;;5023649;28;19932;-65
2023/07/31 05:46:47;;;;;;;;;;;;;;;;;;5022952;28;19971;-65
2023/07/31 05:49:13;;;;;;;;;;;;;;;;;;5022921;28;19929;-64
2023/07/31 05:51:39;;;;;;;;;;;;;;;;;;5022915;28;20260;-67
2023/07/31 05:54:05;;;;;;;;;;;;;;;;;;5023565;28;20382;-66
2023/07/31 05:56:31;;;;;;;;;;;;;;;;;;5023250;28;19929;-66
2023/07/31 05:58:57;;;;;;;;;;;;;;;;;;5022639;28;20061;-66
2023/07/31 06:01:23;;;;;;;;;;;;;;;;;;5023571;28;19929;-66
2023/07/31 06:03:49;;;;;;;;;;;;;;;;;;5020569;28;19925;-67
2023/07/31 06:06:15;;;;;;;;;;;;;;;;;;5020822;28;20284;-65
2023/07/31 06:08:41;;;;;;;;;;;;;;;;;;5023307;28;19925;-66
2023/07/31 06:11:09;;;;;;;;;;;;;;;;;;5021554;28;19979;-66
2023/07/31 06:13:34;;;;;;;;;;;;;;;;;;5023330;28;19932;-65
2023/07/31 06:16:04;;;;;;;;;;;;;;;;;;5023135;28;19978;-65
2023/07/31 06:18:30;;;;;;;;;;;;;;;;;;5023003;28;20398;-68
2023/07/31 06:20:56;;;;;;;;;;;;;;;;;;5022431;28;19932;-67
2023/07/31 06:23:22;;;;;;;;;;;;;;;;;;5025861;28;19932;-65
2023/07/31 06:25:48;;;;;;;;;;;;;;;;;;5026740;28;19932;-61
2023/07/31 06:28:14;;;;;;;;;;;;;;;;;;5027321;28;19931;-62
2023/07/31 06:30:40;;;;;;;;;;;;;;;;;;5027481;28;20397;-62
2023/07/31 06:33:06;;;;;;;;;;;;;;;;;;5027075;28;19925;-62
2023/07/31 06:35:32;;;;;;;;;;;;;;;;;;5027031;28;19936;-62
2023/07/31 06:37:58;;;;;;;;;;;;;;;;;;5025425;28;19925;-62
2023/07/31 06:40:23;;;;;;;;;;;;;;;;;;5026704;28;19930;-62
2023/07/31 06:42:49;;;;;;;;;;;;;;;;;;5025536;28;19921;-62
2023/07/31 06:45:15;;;;;;;;;;;;;;;;;;5026713;28;19929;-61
2023/07/31 06:47:41;;;;;;;;;;;;;;;;;;5026567;28;19933;-61
2023/07/31 06:50:07;;;;;;;;;;;;;;;;;;5026359;28;19925;-61
2023/07/31 06:52:33;;;;;;;;;;;;;;;;;;5025010;28;20595;-65
2023/07/31 06:54:59;;;;;;;;;;;;;;;;;;5027284;28;19933;-64
2023/07/31 06:57:25;;;;;;;;;;;;;;;;;;5025587;28;20016;-65
2023/07/31 06:59:51;;;;;;;;;;;;;;;;;;5026842;28;20306;-64
2023/07/31 07:02:17;;;;;;;;;;;;;;;;;;5012922;28;20370;-64
2023/07/31 07:04:43;;;;;;;;;;;;;;;;;;5026984;28;19929;-65
2023/07/31 07:07:08;;;;;;;;;;;;;;;;;;5026647;28;20169;-66
2023/07/31 07:09:35;;;;;;;;;;;;;;;;;;5025705;28;20275;-65
2023/07/31 07:12:01;;;;;;;;;;;;;;;;;;5037904;28;19925;-66
2023/07/31 07:14:27;;;;;;;;;;;;;;;;;;5025896;28;19979;-66
2023/07/31 07:16:53;;;;;;;;;;;;;;;;;;5026591;28;19929;-66
2023/07/31 07:19:19;;;;;;;;;;;;;;;;;;5026927;28;20028;-65
2023/07/31 07:21:45;;;;;;;;;;;;;;;;;;5026649;28;20008;-65
2023/07/31 07:24:10;;;;;;;;;;;;;;;;;;5026631;28;20436;-64
2023/07/31 07:26:36;;;;;;;;;;;;;;;;;;5026076;28;19925;-64
2023/07/31 07:29:02;;;;;;;;;;;;;;;;;;5026917;28;20352;-65
2023/07/31 07:31:28;;;;;;;;;;;;;;;;;;5025847;28;19948;-65
2023/07/31 07:33:55;;;;;;;;;;;;;;;;;;5025664;28;19925;-65
2023/07/31 07:36:21;;;;;;;;;;;;;;;;;;5023996;28;19925;-65
2023/07/31 07:38:47;;;;;;;;;;;;;;;;;;5024842;28;19928;-66
2023/07/31 07:41:13;;;;;;;;;;;;;;;;;;5024370;28;19929;-66
2023/07/31 07:43:39;;;;;;;;;;;;;;;;;;5024994;28;19921;-64
2023/07/31 07:46:05;;;;;;;;;;;;;;;;;;5025886;28;20283;-65
2023/07/31 07:48:30;;;;;;;;;;;;;;;;;;5033743;28;20019;-67
2023/07/31 07:50:56;;;;;;;;;;;;;;;;;;5016305;28;20007;-66
2023/07/31 07:53:22;;;;;;;;;;;;;;;;;;5021176;28;19925;-67
2023/07/31 07:55:48;;;;;;;;;;;;;;;;;;5024805;28;19921;-66
2023/07/31 07:58:14;;;;;;;;;;;;;;;;;;5025850;28;20371;-65
2023/07/31 08:00:40;;;;;;;;;;;;;;;;;;5025123;28;20037;-66
2023/07/31 08:03:06;;;;;;;;;;;;;;;;;;5024043;28;20009;-66
2023/07/31 08:05:34;;;;;;;;;;;;;;;;;;5020812;28;19929;-65
2023/07/31 08:08:01;;;;;;;;;;;;;;;;;;5022822;28;19974;-67
2023/07/31 08:10:27;;;;;;;;;;;;;;;;;;5020800;28;19926;-67
2023/07/31 08:12:52;;;;;;;;;;;;;;;;;;5024514;28;20422;-65
2023/07/31 08:15:18;;;;;;;;;;;;;;;;;;5023020;28;19929;-66
2023/07/31 08:17:44;;;;;;;;;;;;;;;;;;5025057;28;20033;-65
2023/07/31 08:20:10;;;;;;;;;;;;;;;;;;5024353;28;19976;-66
2023/07/31 08:22:36;;;;;;;;;;;;;;;;;;5022781;28;19939;-67
2023/07/31 08:25:03;;;;;;;;;;;;;;;;;;5024041;28;20329;-65
2023/07/31 08:27:29;;;;;;;;;;;;;;;;;;5024842;28;19929;-66
2023/07/31 08:29:54;;;;;;;;;;;;;;;;;;5024598;28;19999;-66
2023/07/31 08:32:20;;;;;;;;;;;;;;;;;;5025088;28;19925;-65
2023/07/31 08:34:46;;;;;;;;;;;;;;;;;;5020067;28;20473;-66
2023/07/31 08:37:13;;;;;;;;;;;;;;;;;;5009026;28;20595;-65
2023/07/31 08:39:39;;;;;;;;;;;;;;;;;;5021933;28;19932;-65
2023/07/31 08:42:05;;;;;;;;;;;;;;;;;;5022125;28;19932;-65
2023/07/31 08:44:31;;;;;;;;;;;;;;;;;;5021960;28;19931;-67
2023/07/31 08:46:57;;;;;;;;;;;;;;;;;;5018458;28;19951;-66
2023/07/31 08:49:23;;;;;;;;;;;;;;;;;;5019497;28;19929;-67
2023/07/31 08:51:49;;;;;;;;;;;;;;;;;;5022796;28;19925;-65
2023/07/31 08:54:15;;;;;;;;;;;;;;;;;;5024197;28;20475;-64
2023/07/31 08:56:41;;;;;;;;;;;;;;;;;;5023822;28;19968;-64
2023/07/31 08:59:07;;;;;;;;;;;;;;;;;;5024375;28;19971;-65
2023/07/31 09:01:33;;;;;;;;;;;;;;;;;;5023370;28;19972;-65
2023/07/31 09:03:59;;;;;;;;;;;;;;;;;;5024322;28;20034;-66
2023/07/31 09:06:24;;;;;;;;;;;;;;;;;;5023492;28;20430;-66
2023/07/31 09:08:51;;;;;;;;;;;;;;;;;;5024532;28;19927;-62
2023/07/31 09:11:17;;;;;;;;;;;;;;;;;;5023722;28;19925;-65
2023/07/31 09:13:43;;;;;;;;;;;;;;;;;;5023632;28;19994;-64
2023/07/31 09:16:10;;;;;;;;;;;;;;;;;;5024393;28;19928;-65
2023/07/31 09:18:35;;;;;;;;;;;;;;;;;;5023991;28;19936;-65
2023/07/31 09:21:02;;;;;;;;;;;;;;;;;;5023459;28;19929;-65
2023/07/31 09:23:28;;;;;;;;;;;;;;;;;;5023096;28;19961;-65
2023/07/31 09:25:54;;;;;;;;;;;;;;;;;;5024158;28;19975;-65
2023/07/31 09:28:20;;;;;;;;;;;;;;;;;;5024301;28;19925;-65
2023/07/31 09:30:46;;;;;;;;;;;;;;;;;;5023705;28;19931;-65
2023/07/31 09:33:13;;;;;;;;;;;;;;;;;;5024221;28;19935;-65
2023/07/31 09:35:40;;;;;;;;;;;;;;;;;;5021884;28;19925;-65
2023/07/31 09:38:06;;;;;;;;;;;;;;;;;;5023432;28;20429;-65
2023/07/31 09:40:32;;;;;;;;;;;;;;;;;;5023680;28;19980;-65
2023/07/31 09:42:58;;;;;;;;;;;;;;;;;;5023634;28;19925;-65
2023/07/31 09:45:24;;;;;;;;;;;;;;;;;;5023923;28;19972;-66
2023/07/31 09:47:50;;;;;;;;;;;;;;;;;;5023522;28;19971;-65
2023/07/31 09:50:16;;;;;;;;;;;;;;;;;;5022543;28;20298;-65
2023/07/31 09:52:42;;;;;;;;;;;;;;;;;;5023112;28;19929;-65
2023/07/31 09:55:08;;;;;;;;;;;;;;;;;;5023395;28;19987;-65
2023/07/31 09:57:34;;;;;;;;;;;;;;;;;;5023131;28;19940;-65
2023/07/31 09:59:59;;;;;;;;;;;;;;;;;;5022930;28;19948;-65
2023/07/31 10:02:25;;;;;;;;;;;;;;;;;;5023246;28;20276;-65
2023/07/31 10:04:51;;;;;;;;;;;;;;;;;;5022668;28;19925;-65
2023/07/31 10:07:17;;;;;;;;;;;;;;;;;;5023200;28;19932;-64
2023/07/31 10:09:43;;;;;;;;;;;;;;;;;;5022825;28;19951;-65
2023/07/31 10:12:09;;;;;;;;;;;;;;;;;;5024338;28;20306;-66
2023/07/31 10:14:35;;;;;;;;;;;;;;;;;;5023726;28;19925;-65
2023/07/31 10:17:01;;;;;;;;;;;;;;;;;;5023488;28;19927;-66
2023/07/31 10:19:27;;;;;;;;;;;;;;;;;;5021797;28;19925;-65
2023/07/31 10:21:53;;;;;;;;;;;;;;;;;;5022397;28;19928;-65
2023/07/31 10:24:19;;;;;;;;;;;;;;;;;;5023706;28;19925;-67
2023/07/31 10:26:45;;;;;;;;;;;;;;;;;;5023203;28;19925;-66
2023/07/31 10:29:11;;;;;;;;;;;;;;;;;;5023313;28;20565;-66
2023/07/31 10:31:37;;;;;;;;;;;;;;;;;;5023231;28;20040;-66
2023/07/31 10:34:03;;;;;;;;;;;;;;;;;;5022069;28;20019;-66
2023/07/31 10:36:29;;;;;;;;;;;;;;;;;;5022751;28;20335;-67
2023/07/31 10:38:55;;;;;;;;;;;;;;;;;;5021522;28;20734;-67
2023/07/31 10:41:21;;;;;;;;;;;;;;;;;;5023435;28;19925;-67
2023/07/31 10:43:47;;;;;;;;;;;;;;;;;;5010116;28;19931;-66
2023/07/31 10:46:13;;;;;;;;;;;;;;;;;;5022667;28;19985;-67
2023/07/31 10:48:41;;;;;;;;;;;;;;;;;;5023323;28;19968;-66
2023/07/31 10:51:07;;;;;;;;;;;;;;;;;;5022026;28;20430;-67
2023/07/31 10:53:32;;;;;;;;;;;;;;;;;;5021780;28;19936;-65
2023/07/31 10:55:59;;;;;;;;;;;;;;;;;;5021638;28;19933;-66
2023/07/31 10:58:25;;;;;;;;;;;;;;;;;;5009355;28;19933;-67
2023/07/31 11:00:51;;;;;;;;;;;;;;;;;;5023440;28;19978;-67
2023/07/31 11:03:17;;;;;;;;;;;;;;;;;;5022818;28;19987;-66
2023/07/31 11:05:42;;;;;;;;;;;;;;;;;;5022308;28;19929;-67
2023/07/31 11:08:08;;;;;;;;;;;;;;;;;;5022654;28;20379;-66
2023/07/31 11:10:34;;;;;;;;;;;;;;;;;;5025965;28;19925;-67
2023/07/31 11:13:00;;;;;;;;;;;;;;;;;;5023616;28;19932;-68
2023/07/31 11:15:26;;;;;;;;;;;;;;;;;;5025982;28;19979;-66
2023/07/31 11:17:52;;;;;;;;;;;;;;;;;;5025813;28;19925;-65
2023/07/31 11:20:18;;;;;;;;;;;;;;;;;;5025455;28;20502;-67
2023/07/31 11:22:44;;;;;;;;;;;;;;;;;;5026044;28;19925;-67
2023/07/31 11:25:10;;;;;;;;;;;;;;;;;;5025176;28;20096;-66
2023/07/31 11:27:36;;;;;;;;;;;;;;;;;;5025511;28;19936;-66
2023/07/31 11:30:02;;;;;;;;;;;;;;;;;;5025156;28;19921;-66
2023/07/31 11:32:28;;;;;;;;;;;;;;;;;;5026752;28;20581;-67
2023/07/31 11:34:54;;;;;;;;;;;;;;;;;;5025891;28;19929;-67
2023/07/31 11:37:20;;;;;;;;;;;;;;;;;;5027065;28;19991;-67
2023/07/31 11:39:45;;;;;;;;;;;;;;;;;;5012557;28;19937;-65
2023/07/31 11:42:11;;;;;;;;;;;;;;;;;;5025218;28;20005;-65
2023/07/31 11:44:37;;;;;;;;;;;;;;;;;;5025655;28;20137;-65
2023/07/31 11:47:03;;;;;;;;;;;;;;;;;;5026100;28;19929;-65
2023/07/31 11:49:29;;;;;;;;;;;;;;;;;;5025190;28;19929;-66
2023/07/31 11:51:55;;;;;;;;;;;;;;;;;;5025650;28;19929;-66
2023/07/31 11:54:21;;;;;;;;;;;;;;;;;;5026601;28;20387;-65
2023/07/31 11:56:47;;;;;;;;;;;;;;;;;;5024849;28;19925;-66
2023/07/31 11:59:13;;;;;;;;;;;;;;;;;;5025495;28;19929;-66
2023/07/31 12:01:39;;;;;;;;;;;;;;;;;;5025403;28;20280;-66
2023/07/31 12:04:05;;;;;;;;;;;;;;;;;;5025504;28;19932;-66
2023/07/31 12:06:31;;;;;;;;;;;;;;;;;;5025371;28;19951;-66
2023/07/31 12:08:57;;;;;;;;;;;;;;;;;;5025385;28;20379;-66
2023/07/31 12:11:23;;;;;;;;;;;;;;;;;;5024085;28;19936;-66
2023/07/31 12:13:48;;;;;;;;;;;;;;;;;;5024928;28;20024;-66
2023/07/31 12:16:14;;;;;;;;;;;;;;;;;;5025925;28;20048;-65
2023/07/31 12:18:41;;;;;;;;;;;;;;;;;;5025697;28;19925;-66
2023/07/31 12:21:07;;;;;;;;;;;;;;;;;;5015114;28;19932;-66
2023/07/31 12:23:33;;;;;;;;;;;;;;;;;;5023187;28;20636;-65
2023/07/31 12:26:00;;;;;;;;;;;;;;;;;;5022528;28;19937;-65
2023/07/31 12:28:26;;;;;;;;;;;;;;;;;;5023223;28;19933;-66
2023/07/31 12:30:52;;;;;;;;;;;;;;;;;;5022568;28;19991;-65
2023/07/31 12:33:18;;;;;;;;;;;;;;;;;;5021682;28;19976;-64
2023/07/31 12:35:44;;;;;;;;;;;;;;;;;;5019308;28;19929;-64
2023/07/31 12:38:10;;;;;;;;;;;;;;;;;;5021355;28;19935;-64
2023/07/31 12:40:35;;;;;;;;;;;;;;;;;;5022404;28;20036;-64
2023/07/31 12:43:03;;;;;;;;;;;;;;;;;;5023279;28;19940;-64
2023/07/31 12:45:29;;;;;;;;;;;;;;;;;;5023247;28;19935;-64
2023/07/31 12:47:55;;;;;;;;;;;;;;;;;;5022382;28;20016;-64
2023/07/31 12:50:21;;;;;;;;;;;;;;;;;;5014211;28;20012;-64
2023/07/31 12:52:47;;;;;;;;;;;;;;;;;;5016133;28;20291;-64
2023/07/31 12:55:13;;;;;;;;;;;;;;;;;;5022460;28;19929;-65
2023/07/31 12:57:38;;;;;;;;;;;;;;;;;;5022171;28;19929;-64
2023/07/31 13:00:04;;;;;;;;;;;;;;;;;;5022988;28;19929;-64
2023/07/31 13:02:30;;;;;;;;;;;;;;;;;;5019820;28;20342;-66
2023/07/31 13:04:56;;;;;;;;;;;;;;;;;;5021829;28;20008;-66
2023/07/31 13:07:23;;;;;;;;;;;;;;;;;;5021960;28;19925;-62
2023/07/31 13:09:48;;;;;;;;;;;;;;;;;;5022990;28;19948;-63
2023/07/31 13:12:14;;;;;;;;;;;;;;;;;;5022471;28;19948;-64
2023/07/31 13:14:40;;;;;;;;;;;;;;;;;;5021749;28;19975;-64
2023/07/31 13:17:06;;;;;;;;;;;;;;;;;;5021473;28;20008;-64
2023/07/31 13:19:32;;;;;;;;;;;;;;;;;;5008787;28;19979;-64
2023/07/31 13:21:58;;;;;;;;;;;;;;;;;;5020712;28;20401;-64
2023/07/31 13:24:24;;;;;;;;;;;;;;;;;;5022362;28;19929;-64
2023/07/31 13:26:50;;;;;;;;;;;;;;;;;;5022032;28;19936;-63
2023/07/31 13:29:16;;;;;;;;;;;;;;;;;;5022112;28;19933;-64
2023/07/31 13:31:42;;;;;;;;;;;;;;;;;;5021798;28;19932;-64
2023/07/31 13:34:08;;;;;;;;;;;;;;;;;;5022101;28;19931;-64
2023/07/31 13:36:34;;;;;;;;;;;;;;;;;;5022652;28;20009;-65
2023/07/31 13:39:00;;;;;;;;;;;;;;;;;;5022209;28;19925;-64
2023/07/31 13:41:26;;;;;;;;;;;;;;;;;;5020572;28;19982;-66
2023/07/31 13:43:52;;;;;;;;;;;;;;;;;;5019440;28;19925;-65
2023/07/31 13:46:18;;;;;;;;;;;;;;;;;;5021739;28;19929;-65
2023/07/31 13:48:44;;;;;;;;;;;;;;;;;;5022358;28;19936;-65
2023/07/31 13:51:09;;;;;;;;;;;;;;;;;;5020444;28;19929;-64
2023/07/31 13:53:35;;;;;;;;;;;;;;;;;;5021862;28;20401;-64
2023/07/31 13:56:01;;;;;;;;;;;;;;;;;;5021139;28;19933;-64
2023/07/31 13:58:27;;;;;;;;;;;;;;;;;;5021615;28;20195;-65
2023/07/31 14:00:53;;;;;;;;;;;;;;;;;;5021269;28;19940;-64
2023/07/31 14:03:19;;;;;;;;;;;;;;;;;;5021456;28;20103;-65
2023/07/31 14:05:45;;;;;;;;;;;;;;;;;;5020567;28;20481;-65
2023/07/31 14:08:11;;;;;;;;;;;;;;;;;;5019176;28;20004;-65
2023/07/31 14:10:37;;;;;;;;;;;;;;;;;;5020505;28;19984;-65
2023/07/31 14:13:03;;;;;;;;;;;;;;;;;;5021008;28;19929;-65
2023/07/31 14:15:29;;;;;;;;;;;;;;;;;;5021221;28;19938;-65
2023/07/31 14:17:54;;;;;;;;;;;;;;;;;;5021577;28;19936;-66
2023/07/31 14:20:20;;;;;;;;;;;;;;;;;;5020773;28;19944;-65
2023/07/31 14:22:46;;;;;;;;;;;;;;;;;;5021107;28;19929;-65
2023/07/31 14:25:13;;;;;;;;;;;;;;;;;;5021793;28;20370;-66
2023/07/31 14:27:39;;;;;;;;;;;;;;;;;;5022010;28;20397;-66
2023/07/31 14:30:05;;;;;;;;;;;;;;;;;;5021255;28;19925;-65
2023/07/31 14:32:31;;;;;;;;;;;;;;;;;;5020892;28;19926;-65
2023/07/31 14:34:58;;;;;;;;;;;;;;;;;;5020491;28;19936;-65
2023/07/31 14:37:24;;;;;;;;;;;;;;;;;;5020280;28;19929;-65
2023/07/31 14:39:50;;;;;;;;;;;;;;;;;;5021224;28;19952;-65
2023/07/31 14:42:18;;;;;;;;;;;;;;;;;;5019722;28;20509;-65
2023/07/31 14:44:44;;;;;;;;;;;;;;;;;;5023724;28;19964;-65
2023/07/31 14:47:09;;;;;;;;;;;;;;;;;;5025554;28;20030;-65
2023/07/31 14:49:35;;;;;;;;;;;;;;;;;;5024056;28;19995;-65
2023/07/31 14:52:01;;;;;;;;;;;;;;;;;;5024549;28;20008;-65
2023/07/31 14:54:27;;;;;;;;;;;;;;;;;;5024861;28;19982;-66
2023/07/31 14:56:53;;;;;;;;;;;;;;;;;;5023989;28;20346;-63
2023/07/31 14:59:19;;;;;;;;;;;;;;;;;;5024627;28;20080;-66
2023/07/31 15:01:45;;;;;;;;;;;;;;;;;;5024665;28;19980;-64
2023/07/31 15:04:11;;;;;;;;;;;;;;;;;;5024324;28;20018;-65
2023/07/31 15:06:37;;;;;;;;;;;;;;;;;;5023214;28;19928;-67
2023/07/31 15:09:03;;;;;;;;;;;;;;;;;;5022483;28;19929;-63
2023/07/31 15:11:29;;;;;;;;;;;;;;;;;;5024588;28;19936;-63
2023/07/31 15:13:55;;;;;;;;;;;;;;;;;;5024322;28;20330;-63
2023/07/31 15:16:21;;;;;;;;;;;;;;;;;;5024874;28;20454;-63
2023/07/31 15:18:47;;;;;;;;;;;;;;;;;;5024184;28;20500;-64
2023/07/31 15:21:13;;;;;;;;;;;;;;;;;;5023800;28;20411;-64
2023/07/31 15:23:39;;;;;;;;;;;;;;;;;;5024102;28;20098;-64
2023/07/31 15:26:06;;;;;;;;;;;;;;;;;;5024557;28;19925;-64
2023/07/31 15:28:34;;;;;;;;;;;;;;;;;;5023895;28;20375;-64
2023/07/31 15:31:00;;;;;;;;;;;;;;;;;;5024629;28;20043;-65
2023/07/31 15:33:26;;;;;;;;;;;;;;;;;;5024220;28;19939;-64
2023/07/31 15:35:55;;;;;;;;;;;;;;;;;;5024096;28;20075;-64
2023/07/31 15:38:21;;;;;;;;;;;;;;;;;;5024538;28;19932;-64
2023/07/31 15:40:47;;;;;;;;;;;;;;;;;;5024406;28;19929;-64
2023/07/31 15:43:12;;;;;;;;;;;;;;;;;;5023436;28;20724;-64
2023/07/31 15:45:38;;;;;;;;;;;;;;;;;;5023915;28;19926;-64
2023/07/31 15:48:04;;;;;;;;;;;;;;;;;;5024340;28;19976;-64
2023/07/31 15:50:30;;;;;;;;;;;;;;;;;;5023192;28;20000;-65
2023/07/31 15:52:56;;;;;;;;;;;;;;;;;;5023482;28;19933;-65
2023/07/31 15:55:24;;;;;;;;;;;;;;;;;;5022994;28;19936;-65
2023/07/31 15:57:49;;;;;;;;;;;;;;;;;;5024302;28;19979;-65
2023/07/31 16:00:15;;;;;;;;;;;;;;;;;;5023936;28;20329;-65
2023/07/31 16:02:42;;;;;;;;;;;;;;;;;;5023190;28;20012;-65
2023/07/31 16:05:08;;;;;;;;;;;;;;;;;;5022005;28;19975;-64
2023/07/31 16:07:33;;;;;;;;;;;;;;;;;;5022583;28;19925;-63
2023/07/31 16:09:59;;;;;;;;;;;;;;;;;;5023339;28;20017;-63
2023/07/31 16:12:25;;;;;;;;;;;;;;;;;;5023178;28;20020;-64
2023/07/31 16:14:51;;;;;;;;;;;;;;;;;;5024066;28;19929;-64
2023/07/31 16:17:17;;;;;;;;;;;;;;;;;;5023597;28;19932;-64
2023/07/31 16:19:43;;;;;;;;;;;;;;;;;;5022602;28;19929;-66
2023/07/31 16:22:09;;;;;;;;;;;;;;;;;;5023163;28;20433;-64
2023/07/31 16:24:36;;;;;;;;;;;;;;;;;;5022908;28;19960;-64
2023/07/31 16:27:02;;;;;;;;;;;;;;;;;;5023455;28;20004;-63
2023/07/31 16:29:27;;;;;;;;;;;;;;;;;;5023437;28;20035;-64
2023/07/31 16:31:53;;;;;;;;;;;;;;;;;;5021160;28;20020;-64
2023/07/31 16:34:19;;;;;;;;;;;;;;;;;;5023098;28;19933;-66
2023/07/31 16:36:45;;;;;;;;;;;;;;;;;;5022201;28;19931;-65